Airfield :
LOGIN :

Register | Disclaimer

   EN    FR    IT 

 










Legend :    VFR   Marginal VFR   IFR   Intensive IFR   Very Intensive IFR
Visi :
Ceiling :
>= 8 km
>= 3000ft
5 to 8 km
1000 to 3000 ft
1500m to 5 km
500 to 1000 ft
800 to 1500m
200 to 500 ft
< 800m
< 200 ft
Symbols :   Thunderstorms  Fog  Heavy snow  Heavy precipitations  Wind > 20 kt
SIGMETs :     Misc.  Thunderstorms  Icing  Turbulence  Mountain Waves  Volcanic Ashes






- Airport Elevation : 289 ft
- IATA code : ZAD


LDZD - Zadar

CURRENT METAR :
  • 061600Z 07003KT 9999 SCT022 BKN030 09/08 Q1022 NOSIG

EXPIRED METARs :
  • 061530Z 06004KT 030V100 9999 -RA SCT022 BKN030 09/08 Q1022 NOSIG
  • 061500Z 07005KT 030V110 9999 SCT022 BKN030 09/09 Q1022 RESHRA NOSIG
  • 061430Z VRB03KT 5000 -SHRA FEW025TCU BKN027 10/08 Q1023 TEMPO 3000 SHRA
  • 061400Z VRB04KT 9999 -RA SCT022 BKN030 10/08 Q1022 TEMPO FEW025TCU BKN030
  • 061330Z 11006KT 080V150 9999 -RA SCT022 BKN030 11/08 Q1022 TEMPO FEW025TCU BKN030

TAF AMD TAF LDZD
Valid from the 06 at 14:00 until the 07 at 12:00 UTC


061420Z 0614/0712 14006KT 9999 BKN030 TX12/0612Z TN07/0704Z
PROB40
TEMPO 0614/0712 5000 -RA BKN014
PROB30
TEMPO 0614/0619 4000 SHRA FEW020CB FEW023TCU BKN025
BECMG 0710/0712 28007KT



MET'MAP, your aeronautical weather chart ! - Copyright ORBIFLY December 2007 - Disclaimer

ORBIFLY MET'MAP TEAM :

Programming & Development : Alexandra Zaïnal
Concept & original design : Baudouin d'Aumeries
Assistance for programming : Marc-Olivier Méhu
Technical & hardware support : Manuel Goepfert

Contact : metmap@orbifly.com




SOURCES & CREDITS :

   NOAA